sensor_id;sensor_type;location;lat;lon;timestamp;P1;durP1;ratioP1;P2;durP2;ratioP2
60502;SDS011;51448;51.660;5.824;2023-06-14T00:01:18;8.75;;;4.50;;
60502;SDS011;51448;51.660;5.824;2023-06-14T00:04:07;8.80;;;4.68;;
60502;SDS011;51448;51.660;5.824;2023-06-14T00:06:56;8.63;;;4.38;;
60502;SDS011;51448;51.660;5.824;2023-06-14T00:09:44;8.23;;;4.97;;
60502;SDS011;51448;51.660;5.824;2023-06-14T00:12:32;7.55;;;4.63;;
60502;SDS011;51448;51.660;5.824;2023-06-14T00:15:20;8.15;;;4.78;;
60502;SDS011;51448;51.660;5.824;2023-06-14T00:18:08;8.05;;;4.10;;
60502;SDS011;51448;51.660;5.824;2023-06-14T00:20:58;8.30;;;4.60;;
60502;SDS011;51448;51.660;5.824;2023-06-14T00:23:46;8.68;;;4.32;;
60502;SDS011;51448;51.660;5.824;2023-06-14T00:26:34;8.88;;;4.00;;
60502;SDS011;51448;51.660;5.824;2023-06-14T00:29:22;11.27;;;4.53;;
60502;SDS011;51448;51.660;5.824;2023-06-14T00:32:10;8.63;;;3.95;;
60502;SDS011;51448;51.660;5.824;2023-06-14T00:34:58;7.70;;;4.22;;
60502;SDS011;51448;51.660;5.824;2023-06-14T00:37:46;10.45;;;4.20;;
60502;SDS011;51448;51.660;5.824;2023-06-14T00:40:34;9.40;;;3.88;;
60502;SDS011;51448;51.660;5.824;2023-06-14T00:43:22;12.60;;;4.13;;
60502;SDS011;51448;51.660;5.824;2023-06-14T00:46:10;6.93;;;3.72;;
60502;SDS011;51448;51.660;5.824;2023-06-14T00:48:58;8.70;;;3.58;;
60502;SDS011;51448;51.660;5.824;2023-06-14T00:51:48;6.15;;;3.80;;
60502;SDS011;51448;51.660;5.824;2023-06-14T00:54:36;7.40;;;3.70;;
60502;SDS011;51448;51.660;5.824;2023-06-14T00:57:24;8.52;;;3.97;;
60502;SDS011;51448;51.660;5.824;2023-06-14T01:00:12;7.95;;;3.67;;
60502;SDS011;51448;51.660;5.824;2023-06-14T01:03:02;8.40;;;3.85;;
60502;SDS011;51448;51.660;5.824;2023-06-14T01:05:52;8.77;;;3.75;;
60502;SDS011;51448;51.660;5.824;2023-06-14T01:15:45;6.63;;;3.53;;
60502;SDS011;51448;51.660;5.824;2023-06-14T01:18:34;7.20;;;3.85;;
60502;SDS011;51448;51.660;5.824;2023-06-14T01:21:24;7.50;;;4.10;;
60502;SDS011;51448;51.660;5.824;2023-06-14T01:24:13;8.35;;;4.03;;
60502;SDS011;51448;51.660;5.824;2023-06-14T01:27:01;8.00;;;3.70;;
60502;SDS011;51448;51.660;5.824;2023-06-14T01:29:51;7.22;;;3.80;;
60502;SDS011;51448;51.660;5.824;2023-06-14T01:32:44;7.07;;;3.17;;
60502;SDS011;51448;51.660;5.824;2023-06-14T01:35:34;8.20;;;3.50;;
60502;SDS011;51448;51.660;5.824;2023-06-14T01:38:23;8.48;;;3.42;;
60502;SDS011;51448;51.660;5.824;2023-06-14T01:41:14;6.38;;;3.22;;
60502;SDS011;51448;51.660;5.824;2023-06-14T01:44:02;6.93;;;3.55;;
60502;SDS011;51448;51.660;5.824;2023-06-14T01:46:53;7.78;;;3.75;;
60502;SDS011;51448;51.660;5.824;2023-06-14T01:49:42;6.95;;;3.65;;
60502;SDS011;51448;51.660;5.824;2023-06-14T01:52:30;6.63;;;3.63;;
60502;SDS011;51448;51.660;5.824;2023-06-14T01:55:18;7.32;;;3.70;;
60502;SDS011;51448;51.660;5.824;2023-06-14T01:58:09;7.28;;;3.38;;
60502;SDS011;51448;51.660;5.824;2023-06-14T02:00:58;7.00;;;3.65;;
60502;SDS011;51448;51.660;5.824;2023-06-14T02:03:48;7.90;;;3.55;;
60502;SDS011;51448;51.660;5.824;2023-06-14T02:06:36;7.35;;;3.85;;
60502;SDS011;51448;51.660;5.824;2023-06-14T02:09:24;8.52;;;3.70;;
60502;SDS011;51448;51.660;5.824;2023-06-14T02:12:14;7.28;;;3.80;;
60502;SDS011;51448;51.660;5.824;2023-06-14T02:15:02;9.35;;;4.00;;
60502;SDS011;51448;51.660;5.824;2023-06-14T02:17:51;7.82;;;4.13;;
60502;SDS011;51448;51.660;5.824;2023-06-14T02:20:39;7.13;;;3.72;;
60502;SDS011;51448;51.660;5.824;2023-06-14T02:23:27;7.13;;;4.07;;
60502;SDS011;51448;51.660;5.824;2023-06-14T02:26:15;8.57;;;3.67;;
60502;SDS011;51448;51.660;5.824;2023-06-14T02:29:03;7.07;;;3.88;;
60502;SDS011;51448;51.660;5.824;2023-06-14T02:31:54;7.28;;;3.50;;
60502;SDS011;51448;51.660;5.824;2023-06-14T02:34:42;6.72;;;3.60;;
60502;SDS011;51448;51.660;5.824;2023-06-14T02:37:30;7.20;;;3.53;;
60502;SDS011;51448;51.660;5.824;2023-06-14T02:40:19;7.70;;;3.53;;
60502;SDS011;51448;51.660;5.824;2023-06-14T02:43:07;7.78;;;4.00;;
60502;SDS011;51448;51.660;5.824;2023-06-14T02:45:55;8.23;;;4.00;;
60502;SDS011;51448;51.660;5.824;2023-06-14T02:48:43;12.15;;;3.85;;
60502;SDS011;51448;51.660;5.824;2023-06-14T02:51:32;10.23;;;4.05;;
60502;SDS011;51448;51.660;5.824;2023-06-14T02:54:20;10.48;;;3.70;;
60502;SDS011;51448;51.660;5.824;2023-06-14T02:57:08;9.23;;;4.28;;
60502;SDS011;51448;51.660;5.824;2023-06-14T02:59:59;7.30;;;3.45;;
60502;SDS011;51448;51.660;5.824;2023-06-14T03:02:47;6.38;;;3.38;;
60502;SDS011;51448;51.660;5.824;2023-06-14T03:05:35;8.32;;;3.85;;
60502;SDS011;51448;51.660;5.824;2023-06-14T03:08:23;8.27;;;4.05;;
60502;SDS011;51448;51.660;5.824;2023-06-14T03:11:16;7.60;;;3.65;;
60502;SDS011;51448;51.660;5.824;2023-06-14T03:14:08;7.88;;;3.88;;
60502;SDS011;51448;51.660;5.824;2023-06-14T03:16:58;8.65;;;4.38;;
60502;SDS011;51448;51.660;5.824;2023-06-14T03:19:49;6.90;;;3.33;;
60502;SDS011;51448;51.660;5.824;2023-06-14T03:22:37;6.95;;;3.50;;
60502;SDS011;51448;51.660;5.824;2023-06-14T03:25:28;7.40;;;3.80;;
60502;SDS011;51448;51.660;5.824;2023-06-14T03:28:17;9.32;;;3.80;;
60502;SDS011;51448;51.660;5.824;2023-06-14T03:31:05;8.65;;;3.88;;
60502;SDS011;51448;51.660;5.824;2023-06-14T03:33:53;6.78;;;3.58;;
60502;SDS011;51448;51.660;5.824;2023-06-14T03:36:42;8.90;;;3.95;;
60502;SDS011;51448;51.660;5.824;2023-06-14T03:39:30;8.32;;;3.47;;
60502;SDS011;51448;51.660;5.824;2023-06-14T03:42:18;6.88;;;3.30;;
60502;SDS011;51448;51.660;5.824;2023-06-14T03:45:07;8.77;;;3.83;;
60502;SDS011;51448;51.660;5.824;2023-06-14T03:47:55;7.85;;;3.78;;
60502;SDS011;51448;51.660;5.824;2023-06-14T03:50:44;8.75;;;3.88;;
60502;SDS011;51448;51.660;5.824;2023-06-14T03:53:32;8.25;;;3.95;;
60502;SDS011;51448;51.660;5.824;2023-06-14T03:56:20;8.50;;;3.80;;
60502;SDS011;51448;51.660;5.824;2023-06-14T03:59:08;6.97;;;3.63;;
60502;SDS011;51448;51.660;5.824;2023-06-14T04:01:57;7.30;;;3.65;;
60502;SDS011;51448;51.660;5.824;2023-06-14T04:04:44;6.65;;;3.45;;
60502;SDS011;51448;51.660;5.824;2023-06-14T04:07:32;8.82;;;3.70;;
60502;SDS011;51448;51.660;5.824;2023-06-14T04:10:29;8.93;;;3.58;;
60502;SDS011;51448;51.660;5.824;2023-06-14T04:13:17;9.73;;;3.38;;
60502;SDS011;51448;51.660;5.824;2023-06-14T04:16:05;7.20;;;3.25;;
60502;SDS011;51448;51.660;5.824;2023-06-14T04:18:55;7.50;;;3.17;;
60502;SDS011;51448;51.660;5.824;2023-06-14T04:21:45;6.95;;;3.20;;
60502;SDS011;51448;51.660;5.824;2023-06-14T04:24:35;7.65;;;3.00;;
60502;SDS011;51448;51.660;5.824;2023-06-14T04:27:23;6.40;;;3.33;;
60502;SDS011;51448;51.660;5.824;2023-06-14T04:30:13;7.93;;;3.53;;
60502;SDS011;51448;51.660;5.824;2023-06-14T04:33:07;6.15;;;3.38;;
60502;SDS011;51448;51.660;5.824;2023-06-14T04:35:57;7.18;;;3.67;;
60502;SDS011;51448;51.660;5.824;2023-06-14T04:38:45;7.05;;;2.65;;
60502;SDS011;51448;51.660;5.824;2023-06-14T04:41:34;6.88;;;3.10;;
60502;SDS011;51448;51.660;5.824;2023-06-14T04:44:23;5.53;;;3.08;;
60502;SDS011;51448;51.660;5.824;2023-06-14T04:47:24;8.13;;;3.10;;
60502;SDS011;51448;51.660;5.824;2023-06-14T04:50:18;5.97;;;2.92;;
60502;SDS011;51448;51.660;5.824;2023-06-14T04:53:07;6.78;;;2.65;;
60502;SDS011;51448;51.660;5.824;2023-06-14T04:55:56;7.63;;;3.20;;
60502;SDS011;51448;51.660;5.824;2023-06-14T04:58:45;10.07;;;3.40;;
60502;SDS011;51448;51.660;5.824;2023-06-14T05:01:34;8.32;;;3.45;;
60502;SDS011;51448;51.660;5.824;2023-06-14T05:04:22;6.18;;;3.03;;
60502;SDS011;51448;51.660;5.824;2023-06-14T05:07:11;5.72;;;3.28;;
60502;SDS011;51448;51.660;5.824;2023-06-14T05:10:11;10.60;;;2.70;;
60502;SDS011;51448;51.660;5.824;2023-06-14T05:12:59;7.05;;;2.92;;
60502;SDS011;51448;51.660;5.824;2023-06-14T05:15:47;8.07;;;3.08;;
60502;SDS011;51448;51.660;5.824;2023-06-14T05:18:36;6.03;;;3.10;;
60502;SDS011;51448;51.660;5.824;2023-06-14T05:21:25;7.80;;;3.05;;
60502;SDS011;51448;51.660;5.824;2023-06-14T05:24:14;7.88;;;3.20;;
60502;SDS011;51448;51.660;5.824;2023-06-14T05:27:02;6.07;;;3.15;;
60502;SDS011;51448;51.660;5.824;2023-06-14T05:29:50;7.22;;;2.88;;
60502;SDS011;51448;51.660;5.824;2023-06-14T05:32:38;9.18;;;3.80;;
60502;SDS011;51448;51.660;5.824;2023-06-14T05:35:26;7.10;;;2.70;;
60502;SDS011;51448;51.660;5.824;2023-06-14T05:38:14;6.47;;;2.92;;
60502;SDS011;51448;51.660;5.824;2023-06-14T05:41:02;8.77;;;3.00;;
60502;SDS011;51448;51.660;5.824;2023-06-14T05:43:50;7.47;;;3.15;;
60502;SDS011;51448;51.660;5.824;2023-06-14T05:46:38;6.60;;;2.80;;
60502;SDS011;51448;51.660;5.824;2023-06-14T05:49:27;6.70;;;2.70;;
60502;SDS011;51448;51.660;5.824;2023-06-14T05:52:15;4.72;;;2.55;;
60502;SDS011;51448;51.660;5.824;2023-06-14T05:55:03;5.80;;;3.05;;
60502;SDS011;51448;51.660;5.824;2023-06-14T05:57:52;6.15;;;2.83;;
60502;SDS011;51448;51.660;5.824;2023-06-14T06:00:40;8.65;;;2.65;;
60502;SDS011;51448;51.660;5.824;2023-06-14T06:03:27;7.75;;;2.90;;
60502;SDS011;51448;51.660;5.824;2023-06-14T06:06:17;8.00;;;3.08;;
60502;SDS011;51448;51.660;5.824;2023-06-14T06:09:05;6.35;;;2.58;;
60502;SDS011;51448;51.660;5.824;2023-06-14T06:11:54;8.68;;;2.85;;
60502;SDS011;51448;51.660;5.824;2023-06-14T06:14:42;7.10;;;2.75;;
60502;SDS011;51448;51.660;5.824;2023-06-14T06:17:30;9.27;;;2.88;;
60502;SDS011;51448;51.660;5.824;2023-06-14T06:20:38;8.23;;;2.80;;
60502;SDS011;51448;51.660;5.824;2023-06-14T06:23:26;6.13;;;2.75;;
60502;SDS011;51448;51.660;5.824;2023-06-14T06:26:13;14.27;;;3.10;;
60502;SDS011;51448;51.660;5.824;2023-06-14T06:29:02;9.05;;;2.95;;
60502;SDS011;51448;51.660;5.824;2023-06-14T06:31:49;8.38;;;2.67;;
60502;SDS011;51448;51.660;5.824;2023-06-14T06:34:37;10.05;;;2.70;;
60502;SDS011;51448;51.660;5.824;2023-06-14T06:37:25;6.82;;;2.60;;
60502;SDS011;51448;51.660;5.824;2023-06-14T06:40:13;7.30;;;2.90;;
60502;SDS011;51448;51.660;5.824;2023-06-14T06:43:02;13.35;;;3.40;;
60502;SDS011;51448;51.660;5.824;2023-06-14T06:45:51;33.95;;;5.90;;
60502;SDS011;51448;51.660;5.824;2023-06-14T06:48:39;7.75;;;2.80;;
60502;SDS011;51448;51.660;5.824;2023-06-14T06:51:27;6.80;;;2.65;;
60502;SDS011;51448;51.660;5.824;2023-06-14T06:54:15;8.48;;;2.80;;
60502;SDS011;51448;51.660;5.824;2023-06-14T06:57:03;11.07;;;2.80;;
60502;SDS011;51448;51.660;5.824;2023-06-14T06:59:51;6.88;;;2.40;;
60502;SDS011;51448;51.660;5.824;2023-06-14T07:02:38;7.43;;;2.38;;
60502;SDS011;51448;51.660;5.824;2023-06-14T07:05:26;7.43;;;2.80;;
60502;SDS011;51448;51.660;5.824;2023-06-14T07:08:14;8.73;;;2.63;;
60502;SDS011;51448;51.660;5.824;2023-06-14T07:11:02;7.22;;;2.35;;
60502;SDS011;51448;51.660;5.824;2023-06-14T07:13:50;6.03;;;2.42;;
60502;SDS011;51448;51.660;5.824;2023-06-14T07:16:39;7.68;;;2.72;;
60502;SDS011;51448;51.660;5.824;2023-06-14T07:19:28;8.38;;;2.45;;
60502;SDS011;51448;51.660;5.824;2023-06-14T07:22:18;6.85;;;2.28;;
60502;SDS011;51448;51.660;5.824;2023-06-14T07:25:06;8.30;;;2.50;;
60502;SDS011;51448;51.660;5.824;2023-06-14T07:27:56;6.38;;;2.25;;
60502;SDS011;51448;51.660;5.824;2023-06-14T07:30:44;10.23;;;2.60;;
60502;SDS011;51448;51.660;5.824;2023-06-14T07:33:31;5.30;;;2.30;;
60502;SDS011;51448;51.660;5.824;2023-06-14T07:36:19;8.45;;;2.17;;
60502;SDS011;51448;51.660;5.824;2023-06-14T07:39:07;6.40;;;1.88;;
60502;SDS011;51448;51.660;5.824;2023-06-14T07:41:56;5.10;;;2.30;;
60502;SDS011;51448;51.660;5.824;2023-06-14T07:44:44;6.45;;;2.00;;
60502;SDS011;51448;51.660;5.824;2023-06-14T07:47:32;5.18;;;1.98;;
60502;SDS011;51448;51.660;5.824;2023-06-14T07:50:21;8.93;;;1.85;;
60502;SDS011;51448;51.660;5.824;2023-06-14T07:53:09;8.10;;;1.90;;
60502;SDS011;51448;51.660;5.824;2023-06-14T07:55:57;6.70;;;1.63;;
60502;SDS011;51448;51.660;5.824;2023-06-14T07:58:45;7.75;;;1.90;;
60502;SDS011;51448;51.660;5.824;2023-06-14T08:01:33;6.05;;;1.75;;
60502;SDS011;51448;51.660;5.824;2023-06-14T08:04:22;5.53;;;1.80;;
60502;SDS011;51448;51.660;5.824;2023-06-14T08:07:11;5.97;;;1.60;;
60502;SDS011;51448;51.660;5.824;2023-06-14T08:09:59;6.07;;;1.60;;
60502;SDS011;51448;51.660;5.824;2023-06-14T08:12:48;9.50;;;1.50;;
60502;SDS011;51448;51.660;5.824;2023-06-14T08:15:37;6.03;;;1.48;;
60502;SDS011;51448;51.660;5.824;2023-06-14T08:18:25;3.20;;;0.90;;
60502;SDS011;51448;51.660;5.824;2023-06-14T08:21:12;3.03;;;1.13;;
60502;SDS011;51448;51.660;5.824;2023-06-14T08:24:02;4.50;;;1.30;;
60502;SDS011;51448;51.660;5.824;2023-06-14T08:26:51;2.63;;;1.10;;
60502;SDS011;51448;51.660;5.824;2023-06-14T08:29:39;4.20;;;1.30;;
60502;SDS011;51448;51.660;5.824;2023-06-14T08:32:29;5.15;;;1.08;;
60502;SDS011;51448;51.660;5.824;2023-06-14T08:35:17;3.25;;;1.10;;
60502;SDS011;51448;51.660;5.824;2023-06-14T08:38:06;6.10;;;1.25;;
60502;SDS011;51448;51.660;5.824;2023-06-14T08:40:56;2.92;;;1.00;;
60502;SDS011;51448;51.660;5.824;2023-06-14T08:43:45;4.03;;;0.98;;
60502;SDS011;51448;51.660;5.824;2023-06-14T08:46:34;3.53;;;0.90;;
60502;SDS011;51448;51.660;5.824;2023-06-14T08:49:25;3.63;;;0.80;;
60502;SDS011;51448;51.660;5.824;2023-06-14T08:52:13;3.67;;;0.90;;
60502;SDS011;51448;51.660;5.824;2023-06-14T08:55:08;4.18;;;1.08;;
60502;SDS011;51448;51.660;5.824;2023-06-14T08:57:57;3.22;;;1.13;;
60502;SDS011;51448;51.660;5.824;2023-06-14T09:00:45;3.00;;;0.95;;
60502;SDS011;51448;51.660;5.824;2023-06-14T09:03:34;3.05;;;0.90;;
60502;SDS011;51448;51.660;5.824;2023-06-14T09:06:22;3.70;;;1.17;;
60502;SDS011;51448;51.660;5.824;2023-06-14T09:09:12;2.75;;;1.17;;
60502;SDS011;51448;51.660;5.824;2023-06-14T09:12:00;3.63;;;1.35;;
60502;SDS011;51448;51.660;5.824;2023-06-14T09:14:48;3.83;;;1.10;;
60502;SDS011;51448;51.660;5.824;2023-06-14T09:17:36;3.53;;;1.33;;
60502;SDS011;51448;51.660;5.824;2023-06-14T09:20:25;3.10;;;1.25;;
60502;SDS011;51448;51.660;5.824;2023-06-14T09:23:13;3.50;;;1.20;;
60502;SDS011;51448;51.660;5.824;2023-06-14T09:26:09;3.08;;;1.38;;
60502;SDS011;51448;51.660;5.824;2023-06-14T09:29:01;2.95;;;1.20;;
60502;SDS011;51448;51.660;5.824;2023-06-14T09:34:40;3.10;;;1.30;;
60502;SDS011;51448;51.660;5.824;2023-06-14T09:37:29;5.80;;;1.77;;
60502;SDS011;51448;51.660;5.824;2023-06-14T09:40:21;5.53;;;1.60;;
60502;SDS011;51448;51.660;5.824;2023-06-14T09:43:09;4.20;;;1.30;;
60502;SDS011;51448;51.660;5.824;2023-06-14T09:45:58;3.00;;;1.30;;
60502;SDS011;51448;51.660;5.824;2023-06-14T09:48:46;5.50;;;1.60;;
60502;SDS011;51448;51.660;5.824;2023-06-14T09:51:35;4.50;;;1.50;;
60502;SDS011;51448;51.660;5.824;2023-06-14T09:54:31;4.60;;;1.40;;
60502;SDS011;51448;51.660;5.824;2023-06-14T09:57:22;3.72;;;1.20;;
60502;SDS011;51448;51.660;5.824;2023-06-14T10:00:12;3.55;;;1.20;;
60502;SDS011;51448;51.660;5.824;2023-06-14T10:03:05;2.77;;;1.03;;
60502;SDS011;51448;51.660;5.824;2023-06-14T10:06:01;4.25;;;1.40;;
60502;SDS011;51448;51.660;5.824;2023-06-14T10:08:59;4.35;;;1.30;;
60502;SDS011;51448;51.660;5.824;2023-06-14T10:11:48;4.45;;;1.27;;
60502;SDS011;51448;51.660;5.824;2023-06-14T10:14:38;4.18;;;1.20;;
60502;SDS011;51448;51.660;5.824;2023-06-14T10:17:33;5.55;;;1.50;;
60502;SDS011;51448;51.660;5.824;2023-06-14T10:20:42;6.47;;;1.38;;
60502;SDS011;51448;51.660;5.824;2023-06-14T10:23:43;5.15;;;1.40;;
60502;SDS011;51448;51.660;5.824;2023-06-14T10:26:34;4.65;;;1.35;;
60502;SDS011;51448;51.660;5.824;2023-06-14T10:29:22;3.10;;;1.30;;
60502;SDS011;51448;51.660;5.824;2023-06-14T10:32:10;4.43;;;1.33;;
60502;SDS011;51448;51.660;5.824;2023-06-14T10:35:04;5.57;;;1.60;;
60502;SDS011;51448;51.660;5.824;2023-06-14T10:38:06;2.95;;;1.30;;
60502;SDS011;51448;51.660;5.824;2023-06-14T10:40:56;3.80;;;1.38;;
60502;SDS011;51448;51.660;5.824;2023-06-14T10:43:44;4.15;;;1.10;;
60502;SDS011;51448;51.660;5.824;2023-06-14T10:46:32;4.18;;;1.08;;
60502;SDS011;51448;51.660;5.824;2023-06-14T10:49:36;4.00;;;1.27;;
60502;SDS011;51448;51.660;5.824;2023-06-14T10:55:34;4.72;;;1.25;;
60502;SDS011;51448;51.660;5.824;2023-06-14T10:58:23;5.47;;;1.00;;
60502;SDS011;51448;51.660;5.824;2023-06-14T11:01:11;4.80;;;1.05;;
60502;SDS011;51448;51.660;5.824;2023-06-14T11:04:07;3.15;;;0.98;;
60502;SDS011;51448;51.660;5.824;2023-06-14T11:07:02;3.28;;;1.00;;
60502;SDS011;51448;51.660;5.824;2023-06-14T11:13:11;3.55;;;1.30;;
60502;SDS011;51448;51.660;5.824;2023-06-14T11:15:59;12.13;;;1.63;;
60502;SDS011;51448;51.660;5.824;2023-06-14T11:18:47;3.67;;;1.05;;
60502;SDS011;51448;51.660;5.824;2023-06-14T11:21:39;3.67;;;1.00;;
60502;SDS011;51448;51.660;5.824;2023-06-14T11:24:28;3.10;;;1.00;;
60502;SDS011;51448;51.660;5.824;2023-06-14T11:27:16;5.35;;;1.10;;
60502;SDS011;51448;51.660;5.824;2023-06-14T11:30:06;3.47;;;1.20;;
60502;SDS011;51448;51.660;5.824;2023-06-14T11:32:55;3.92;;;1.30;;
60502;SDS011;51448;51.660;5.824;2023-06-14T11:35:45;3.15;;;1.20;;
60502;SDS011;51448;51.660;5.824;2023-06-14T11:38:36;4.15;;;1.10;;
60502;SDS011;51448;51.660;5.824;2023-06-14T11:41:24;4.18;;;1.20;;
60502;SDS011;51448;51.660;5.824;2023-06-14T11:44:12;2.92;;;1.17;;
60502;SDS011;51448;51.660;5.824;2023-06-14T11:47:03;4.47;;;1.38;;
60502;SDS011;51448;51.660;5.824;2023-06-14T11:49:51;4.80;;;1.43;;
60502;SDS011;51448;51.660;5.824;2023-06-14T11:52:39;2.95;;;1.20;;
60502;SDS011;51448;51.660;5.824;2023-06-14T11:55:27;3.92;;;1.15;;
60502;SDS011;51448;51.660;5.824;2023-06-14T11:58:16;4.45;;;1.30;;
60502;SDS011;51448;51.660;5.824;2023-06-14T12:01:04;3.17;;;1.17;;
60502;SDS011;51448;51.660;5.824;2023-06-14T12:03:53;4.22;;;1.30;;
60502;SDS011;51448;51.660;5.824;2023-06-14T12:06:42;4.57;;;1.40;;
60502;SDS011;51448;51.660;5.824;2023-06-14T12:09:30;3.13;;;1.10;;
60502;SDS011;51448;51.660;5.824;2023-06-14T12:12:20;4.78;;;1.20;;
60502;SDS011;51448;51.660;5.824;2023-06-14T12:15:09;19.00;;;1.80;;
60502;SDS011;51448;51.660;5.824;2023-06-14T12:17:59;4.57;;;1.30;;
60502;SDS011;51448;51.660;5.824;2023-06-14T12:20:49;3.67;;;1.15;;
60502;SDS011;51448;51.660;5.824;2023-06-14T12:23:48;4.85;;;1.40;;
60502;SDS011;51448;51.660;5.824;2023-06-14T12:26:37;3.22;;;1.05;;
60502;SDS011;51448;51.660;5.824;2023-06-14T12:29:30;2.90;;;1.15;;
60502;SDS011;51448;51.660;5.824;2023-06-14T12:32:19;2.30;;;0.80;;
60502;SDS011;51448;51.660;5.824;2023-06-14T12:35:11;4.47;;;1.10;;
60502;SDS011;51448;51.660;5.824;2023-06-14T12:38:00;4.35;;;1.40;;
60502;SDS011;51448;51.660;5.824;2023-06-14T12:40:48;4.38;;;1.10;;
60502;SDS011;51448;51.660;5.824;2023-06-14T12:43:36;2.88;;;1.10;;
60502;SDS011;51448;51.660;5.824;2023-06-14T12:46:24;4.70;;;1.30;;
60502;SDS011;51448;51.660;5.824;2023-06-14T12:49:13;2.70;;;1.00;;
60502;SDS011;51448;51.660;5.824;2023-06-14T12:52:01;3.42;;;1.40;;
60502;SDS011;51448;51.660;5.824;2023-06-14T12:54:49;4.15;;;1.10;;
60502;SDS011;51448;51.660;5.824;2023-06-14T12:57:37;4.80;;;1.08;;
60502;SDS011;51448;51.660;5.824;2023-06-14T13:00:25;5.90;;;1.23;;
60502;SDS011;51448;51.660;5.824;2023-06-14T13:03:13;2.90;;;1.10;;
60502;SDS011;51448;51.660;5.824;2023-06-14T13:06:02;1.92;;;0.90;;
60502;SDS011;51448;51.660;5.824;2023-06-14T13:08:51;3.38;;;0.90;;
60502;SDS011;51448;51.660;5.824;2023-06-14T13:11:42;2.70;;;1.17;;
60502;SDS011;51448;51.660;5.824;2023-06-14T13:14:33;6.82;;;1.00;;
60502;SDS011;51448;51.660;5.824;2023-06-14T13:17:21;3.20;;;0.90;;
60502;SDS011;51448;51.660;5.824;2023-06-14T13:20:09;2.00;;;0.80;;
60502;SDS011;51448;51.660;5.824;2023-06-14T13:22:57;3.33;;;0.80;;
60502;SDS011;51448;51.660;5.824;2023-06-14T13:25:47;2.60;;;0.95;;
60502;SDS011;51448;51.660;5.824;2023-06-14T13:28:37;2.95;;;0.73;;
60502;SDS011;51448;51.660;5.824;2023-06-14T13:31:24;4.20;;;0.80;;
60502;SDS011;51448;51.660;5.824;2023-06-14T13:34:12;4.72;;;0.88;;
60502;SDS011;51448;51.660;5.824;2023-06-14T13:37:00;2.45;;;0.80;;
60502;SDS011;51448;51.660;5.824;2023-06-14T13:39:48;5.07;;;0.80;;
60502;SDS011;51448;51.660;5.824;2023-06-14T13:42:36;5.28;;;1.13;;
60502;SDS011;51448;51.660;5.824;2023-06-14T13:45:24;2.88;;;0.57;;
60502;SDS011;51448;51.660;5.824;2023-06-14T13:48:12;4.05;;;0.80;;
60502;SDS011;51448;51.660;5.824;2023-06-14T13:51:00;3.53;;;0.95;;
60502;SDS011;51448;51.660;5.824;2023-06-14T13:53:48;2.22;;;0.85;;
60502;SDS011;51448;51.660;5.824;2023-06-14T13:56:38;7.57;;;1.10;;
60502;SDS011;51448;51.660;5.824;2023-06-14T13:59:26;2.70;;;0.90;;
60502;SDS011;51448;51.660;5.824;2023-06-14T14:02:14;2.50;;;0.70;;
60502;SDS011;51448;51.660;5.824;2023-06-14T14:05:02;5.13;;;0.80;;
60502;SDS011;51448;51.660;5.824;2023-06-14T14:07:50;2.05;;;0.90;;
60502;SDS011;51448;51.660;5.824;2023-06-14T14:10:39;3.20;;;0.70;;
60502;SDS011;51448;51.660;5.824;2023-06-14T14:13:27;2.80;;;0.65;;
60502;SDS011;51448;51.660;5.824;2023-06-14T14:16:15;3.50;;;1.13;;
60502;SDS011;51448;51.660;5.824;2023-06-14T14:19:03;1.92;;;0.80;;
60502;SDS011;51448;51.660;5.824;2023-06-14T14:21:51;9.13;;;0.85;;
60502;SDS011;51448;51.660;5.824;2023-06-14T14:24:41;2.70;;;0.90;;
60502;SDS011;51448;51.660;5.824;2023-06-14T14:27:29;4.53;;;0.90;;
60502;SDS011;51448;51.660;5.824;2023-06-14T14:30:17;2.22;;;0.77;;
60502;SDS011;51448;51.660;5.824;2023-06-14T14:33:06;3.38;;;0.90;;
60502;SDS011;51448;51.660;5.824;2023-06-14T14:35:55;3.35;;;0.80;;
60502;SDS011;51448;51.660;5.824;2023-06-14T14:38:43;3.10;;;0.80;;
60502;SDS011;51448;51.660;5.824;2023-06-14T14:41:30;2.47;;;0.90;;
60502;SDS011;51448;51.660;5.824;2023-06-14T14:44:18;1.40;;;0.70;;
60502;SDS011;51448;51.660;5.824;2023-06-14T14:47:06;2.72;;;0.98;;
60502;SDS011;51448;51.660;5.824;2023-06-14T14:49:55;2.15;;;0.80;;
60502;SDS011;51448;51.660;5.824;2023-06-14T14:52:42;2.95;;;0.93;;
60502;SDS011;51448;51.660;5.824;2023-06-14T14:55:30;2.95;;;0.93;;
60502;SDS011;51448;51.660;5.824;2023-06-14T14:58:19;2.80;;;1.00;;
60502;SDS011;51448;51.660;5.824;2023-06-14T15:01:07;4.63;;;1.13;;
60502;SDS011;51448;51.660;5.824;2023-06-14T15:03:55;3.45;;;1.00;;
60502;SDS011;51448;51.660;5.824;2023-06-14T15:06:46;4.43;;;0.80;;
60502;SDS011;51448;51.660;5.824;2023-06-14T15:09:34;2.60;;;0.98;;
60502;SDS011;51448;51.660;5.824;2023-06-14T15:12:22;3.72;;;0.90;;
60502;SDS011;51448;51.660;5.824;2023-06-14T15:15:10;5.32;;;1.00;;
60502;SDS011;51448;51.660;5.824;2023-06-14T15:17:58;3.40;;;0.75;;
60502;SDS011;51448;51.660;5.824;2023-06-14T15:20:47;2.55;;;0.85;;
60502;SDS011;51448;51.660;5.824;2023-06-14T15:23:37;3.80;;;0.95;;
60502;SDS011;51448;51.660;5.824;2023-06-14T15:26:25;3.15;;;0.90;;
60502;SDS011;51448;51.660;5.824;2023-06-14T15:29:13;2.75;;;0.90;;
60502;SDS011;51448;51.660;5.824;2023-06-14T15:32:01;4.05;;;0.90;;
60502;SDS011;51448;51.660;5.824;2023-06-14T15:34:49;2.97;;;0.82;;
60502;SDS011;51448;51.660;5.824;2023-06-14T15:37:37;7.68;;;1.13;;
60502;SDS011;51448;51.660;5.824;2023-06-14T15:40:25;4.55;;;1.10;;
60502;SDS011;51448;51.660;5.824;2023-06-14T15:43:14;3.15;;;0.90;;
60502;SDS011;51448;51.660;5.824;2023-06-14T15:46:02;4.88;;;1.38;;
60502;SDS011;51448;51.660;5.824;2023-06-14T15:48:49;2.83;;;1.10;;
60502;SDS011;51448;51.660;5.824;2023-06-14T15:51:37;4.10;;;1.25;;
60502;SDS011;51448;51.660;5.824;2023-06-14T15:54:25;3.40;;;1.02;;
60502;SDS011;51448;51.660;5.824;2023-06-14T15:57:13;4.18;;;0.80;;
60502;SDS011;51448;51.660;5.824;2023-06-14T16:00:01;2.58;;;1.05;;
60502;SDS011;51448;51.660;5.824;2023-06-14T16:02:51;3.03;;;1.02;;
60502;SDS011;51448;51.660;5.824;2023-06-14T16:05:39;5.38;;;1.17;;
60502;SDS011;51448;51.660;5.824;2023-06-14T16:08:27;2.95;;;1.13;;
60502;SDS011;51448;51.660;5.824;2023-06-14T16:11:27;3.47;;;1.27;;
60502;SDS011;51448;51.660;5.824;2023-06-14T16:14:15;3.30;;;1.00;;
60502;SDS011;51448;51.660;5.824;2023-06-14T16:17:03;3.60;;;1.13;;
60502;SDS011;51448;51.660;5.824;2023-06-14T16:19:51;3.40;;;1.00;;
60502;SDS011;51448;51.660;5.824;2023-06-14T16:22:39;4.15;;;1.33;;
60502;SDS011;51448;51.660;5.824;2023-06-14T16:25:27;2.78;;;1.05;;
60502;SDS011;51448;51.660;5.824;2023-06-14T16:28:17;4.00;;;1.10;;
60502;SDS011;51448;51.660;5.824;2023-06-14T16:31:05;3.28;;;1.40;;
60502;SDS011;51448;51.660;5.824;2023-06-14T16:33:53;2.35;;;1.10;;
60502;SDS011;51448;51.660;5.824;2023-06-14T16:36:44;3.45;;;1.10;;
60502;SDS011;51448;51.660;5.824;2023-06-14T16:39:33;3.03;;;1.35;;
60502;SDS011;51448;51.660;5.824;2023-06-14T16:42:20;2.78;;;1.10;;
60502;SDS011;51448;51.660;5.824;2023-06-14T16:45:08;2.70;;;1.02;;
60502;SDS011;51448;51.660;5.824;2023-06-14T16:47:57;3.63;;;1.40;;
60502;SDS011;51448;51.660;5.824;2023-06-14T16:50:45;5.45;;;1.45;;
60502;SDS011;51448;51.660;5.824;2023-06-14T16:53:33;3.95;;;1.35;;
60502;SDS011;51448;51.660;5.824;2023-06-14T16:56:21;3.88;;;1.50;;
60502;SDS011;51448;51.660;5.824;2023-06-14T16:59:14;3.30;;;1.42;;
60502;SDS011;51448;51.660;5.824;2023-06-14T17:02:02;3.15;;;1.40;;
60502;SDS011;51448;51.660;5.824;2023-06-14T17:04:52;3.67;;;1.63;;
60502;SDS011;51448;51.660;5.824;2023-06-14T17:07:40;4.85;;;1.58;;
60502;SDS011;51448;51.660;5.824;2023-06-14T17:10:28;3.75;;;1.48;;
60502;SDS011;51448;51.660;5.824;2023-06-14T17:13:16;4.55;;;1.73;;
60502;SDS011;51448;51.660;5.824;2023-06-14T17:16:05;5.28;;;1.38;;